Terminal Aerodrome Forecast
Issued by NWS Atlanta, GA

Home | Current Version | Previous Version | Text Only | Print | Product List | Glossary On
Versions: 1 2 3 4 5 6 7 8 9 10 11 12 13 14
000
FTUS42 KFFC 271120
TAFCSG
TAF
KCSG 271120Z 2712/2812 VRB03KT P6SM SCT120
     FM271500 15004KT P6SM BKN120
     FM280000 VRB03KT P6SM -RA BKN050 OVC150
     FM280600 14004KT 4SM -RA BR SCT005 OVC015=

USA.gov is the U.S. government's official web portal to all federal, state and local government web resources and services.